KLWT/LWT METAR and TAF weather

Enter ICAO airport designator
Station Type Date Time Source
KLWT METAR 2020/01/21 08:54 UTC NOAA

KLWT 210854Z AUTO 24012KT 10SM OVC100 06/M04 A2985 RMK AO2 SLP102 T00611039 57006


Station Type Date Time Source
KLWT Decoded METAR 2020/01/21 08:54 UTC NOAA

LEWISTOWN MUNICIPAL AIRPORT , MT, United States (KLWT) 47-03N 109-27W
Jan 21, 2020 - 03:54 AM EST / 2020.01.21 0854 UTC
Wind: from the WSW (240 degrees) at 14 MPH (12 KT):0
Visibility: 10 mile(s):0
Sky conditions: overcast
Temperature: 43.0 F (6.1 C)
Dew Point: 25.0 F (-3.9 C)
Relative Humidity: 48%
Pressure (altimeter): 29.85 in. Hg (1010 hPa)
Pressure tendency: 0.02 inches (0.6 hPa) lower than three hours ago
ob: KLWT 210854Z AUTO 24012KT 10SM OVC100 06/M04 A2985 RMK AO2 SLP102 T00611039 57006
cycle: 9

Station Type Date Time Source
KLWT TAF 2020/01/21 06:22 UTC NOAA

TAF KLWT 210520Z 2106/2206 23010KT P6SM SCT060 BKN100
TEMPO 2115/2119 SCT100
FM212200 24009KT P6SM SCT050 OVC080
FM220400 22009KT P6SM SCT025 BKN050

Example: see airport list